Worcester, MA

5:05 AM EST en Diciembre 19, 2014 (GMT -0500)
Thornton Rd. | Change Station
CLOSE
Current Station
Estación meteorológica personal
Location: Worcester, MA
Altura: 656 ft
Estaciones meteorológicas cercanas

Alt 656 ft 42.30 °N, 71.79 °W | Updated 1 second ago

Nublado
Nublado
31.6 ° F
Sensación térmica 21 ° F
N
15.2
Viento Variable Viento desde Oeste
Gusts 15.2 mph

Hoy
Alta -- | Baja -- ° F
--% Posibilidad de precipitaciones
Ayer
Alta -- | Baja -- ° F
Precip. -- pul
7:11 AM 4:17 PM
Creciente menguante, 9% visible
Presión 29.89 pul
Visibilidad 10.0 Millas
Nubes Baja 2600 ft
Nublado 3300 ft
Vientos helados 21 ° F
Punto de rocío 4 ° F
Humedad 31%
Precipitaciones 0.00 pul
Espesor de la nieve No disponible.
UV 0 de una escala de 12
Polen .10 de una escala de 12
Calidad del aire No disponible.
Flu Activity No disponible.
METAR KORH 190954Z AUTO 28010KT 10SM FEW026 OVC033 M01/M05 A2985 RMK AO2 SLP120 T10111050

More Conditions Fewer Conditions

Presión 29.89 pul
Visibilidad 10.0 Millas
Nubes Baja 2600 ft
Nublado 3300 ft
Vientos helados 21 ° F
Punto de rocío 4 ° F
Humedad 31%
Precipitaciones 0.00 pul
Espesor de la nieve No disponible.
UV 0 de una escala de 12
Polen .10 de una escala de 12
Calidad del aire No disponible.
Flu Activity No disponible.
METAR KORH 190954Z AUTO 28010KT 10SM FEW026 OVC033 M01/M05 A2985 RMK AO2 SLP120 T10111050

More Conditions Fewer Conditions

10-Day Weather Forecast

Almanac

Astronomía

Dec. 19, 2014 Salida Puesta
Hora real
Crepúsculo civil
Crepúsculo náutico
Crepúsculo astronómico
Luna
Horas de luz
Horas de luz
Tomorrow will be .
, % of the Moon is Illuminated

Extremos de hoy

Máximos del estado Bajos del estado

Community

WunderPhotos

Upload Photos

1,778,966 ¡fotos cargadas!

WunderBlogs® & News

Nearby

Calidad del aire

  Calidad del aire Índice AQ Contaminante
Not available.

Grosos de nieve

Estación Profundido Altura

Actividad de terremotos

Ciudad Distance Mag. Tiempo y dato
Magnitud mínima muestra es 2,5.

Temperaturas de aguas costeras

Lugar Temperatura

Estaciones meteorológicas cercanas